Time;durP1;ratioP1;P1;durP2;ratioP2;P2;SDS_P1;SDS_P2;PMS_P1;PMS_P2;Temp;Humidity;BMP_temperature;BMP_pressure;BME280_temperature;BME280_humidity;BME280_pressure;Samples;Min_cycle;Max_cycle;Signal;HPM_P1;HPM_P2
2021/09/09 00:00:19;;;;;;;18.55;14.75;;;;;;;;;;5033123;28;20040;-70
2021/09/09 00:02:45;;;;;;;19.98;15.63;;;;;;;;;;5032898;28;20025;-70
2021/09/09 00:05:11;;;;;;;18.92;13.90;;;;;;;;;;5037822;28;20600;-69
2021/09/09 00:07:38;;;;;;;19.23;14.52;;;;;;;;;;5033118;28;20048;-70
2021/09/09 00:10:05;;;;;;;19.35;14.63;;;;;;;;;;5034279;28;20412;-70
2021/09/09 00:12:31;;;;;;;18.90;14.67;;;;;;;;;;5031370;28;20022;-70
2021/09/09 00:14:57;;;;;;;19.98;15.35;;;;;;;;;;5033489;28;20043;-70
2021/09/09 00:17:23;;;;;;;21.40;15.20;;;;;;;;;;5033013;28;20032;-70
2021/09/09 00:19:49;;;;;;;21.50;14.95;;;;;;;;;;5034448;28;20037;-70
2021/09/09 00:22:15;;;;;;;19.90;14.35;;;;;;;;;;5034543;28;20090;-70
2021/09/09 00:24:41;;;;;;;18.75;15.07;;;;;;;;;;5032988;28;20381;-70
2021/09/09 00:27:07;;;;;;;17.88;14.80;;;;;;;;;;5032227;28;20029;-70
2021/09/09 00:29:33;;;;;;;22.17;14.95;;;;;;;;;;5032299;28;20035;-70
2021/09/09 00:31:59;;;;;;;17.95;14.82;;;;;;;;;;5031860;28;20465;-70
2021/09/09 00:34:25;;;;;;;18.85;15.48;;;;;;;;;;5032094;28;20033;-70
2021/09/09 00:36:51;;;;;;;19.13;15.60;;;;;;;;;;5032300;28;20026;-70
2021/09/09 00:39:17;;;;;;;19.23;14.73;;;;;;;;;;5029994;28;20401;-70
2021/09/09 00:41:43;;;;;;;21.27;15.15;;;;;;;;;;5032137;28;20056;-70
2021/09/09 00:44:23;;;;;;;21.20;14.82;;;;;;;;;;5031660;28;20036;-70
2021/09/09 00:46:59;;;;;;;20.05;14.43;;;;;;;;;;5033104;28;20059;-70
2021/09/09 00:49:25;;;;;;;20.60;13.98;;;;;;;;;;5032169;28;20036;-71
2021/09/09 00:51:51;;;;;;;17.88;14.05;;;;;;;;;;5032427;28;20025;-70
2021/09/09 00:54:17;;;;;;;18.85;14.25;;;;;;;;;;5031844;28;20507;-70
2021/09/09 00:56:43;;;;;;;18.85;14.77;;;;;;;;;;5033177;28;20021;-70
2021/09/09 00:59:09;;;;;;;21.05;16.25;;;;;;;;;;5032763;28;20060;-70
2021/09/09 01:01:35;;;;;;;20.23;14.60;;;;;;;;;;5033294;28;20033;-70
2021/09/09 01:04:01;;;;;;;23.23;15.98;;;;;;;;;;5031975;28;20097;-70
2021/09/09 01:06:27;;;;;;;17.92;14.30;;;;;;;;;;5030681;28;20115;-70
2021/09/09 01:08:53;;;;;;;22.48;15.38;;;;;;;;;;5031505;28;20037;-70
2021/09/09 01:11:19;;;;;;;19.90;14.77;;;;;;;;;;5031446;28;20033;-70
2021/09/09 01:13:51;;;;;;;21.83;15.82;;;;;;;;;;5031122;28;20065;-69
2021/09/09 01:16:18;;;;;;;18.27;14.63;;;;;;;;;;5031323;28;20037;-69
2021/09/09 01:18:44;;;;;;;19.52;15.32;;;;;;;;;;5031479;28;20108;-70
2021/09/09 01:21:10;;;;;;;21.83;15.60;;;;;;;;;;5030761;28;20113;-70
2021/09/09 01:23:37;;;;;;;18.63;14.52;;;;;;;;;;5031265;28;20030;-70
2021/09/09 01:26:03;;;;;;;18.77;14.05;;;;;;;;;;5031209;28;20044;-70
2021/09/09 01:28:30;;;;;;;18.60;13.77;;;;;;;;;;4990617;28;1229659;-70
2021/09/09 01:30:56;;;;;;;18.42;13.52;;;;;;;;;;5032304;28;20032;-70
2021/09/09 01:33:22;;;;;;;17.83;13.82;;;;;;;;;;5031770;28;20018;-70
2021/09/09 01:35:48;;;;;;;20.48;15.18;;;;;;;;;;5032239;28;20058;-70
2021/09/09 01:38:21;;;;;;;19.10;14.77;;;;;;;;;;5035924;28;20021;-70
2021/09/09 01:40:47;;;;;;;19.33;14.80;;;;;;;;;;5032123;28;20104;-69
2021/09/09 01:43:14;;;;;;;20.67;15.30;;;;;;;;;;5031888;28;20453;-70
2021/09/09 01:45:40;;;;;;;18.45;14.95;;;;;;;;;;5032108;28;20033;-70
2021/09/09 01:48:06;;;;;;;19.75;14.98;;;;;;;;;;5029302;28;20071;-70
2021/09/09 01:50:32;;;;;;;18.17;14.75;;;;;;;;;;5033318;28;20030;-70
2021/09/09 01:52:58;;;;;;;19.17;15.82;;;;;;;;;;5033065;28;20037;-70
2021/09/09 01:55:24;;;;;;;19.90;14.38;;;;;;;;;;5033782;28;20076;-70
2021/09/09 01:57:50;;;;;;;17.95;14.50;;;;;;;;;;5030831;28;20047;-70
2021/09/09 02:00:16;;;;;;;18.92;14.65;;;;;;;;;;5031050;28;20470;-70
2021/09/09 02:02:42;;;;;;;19.23;14.27;;;;;;;;;;5032307;28;20424;-70
2021/09/09 02:05:09;;;;;;;18.13;13.95;;;;;;;;;;5033134;28;20037;-70
2021/09/09 02:07:35;;;;;;;16.60;14.23;;;;;;;;;;5031842;28;20029;-70
2021/09/09 02:10:01;;;;;;;17.38;14.02;;;;;;;;;;5032085;28;20036;-70
2021/09/09 02:12:27;;;;;;;19.08;14.35;;;;;;;;;;5030823;28;20021;-70
2021/09/09 02:14:53;;;;;;;18.27;14.32;;;;;;;;;;5032230;28;20044;-70
2021/09/09 02:17:19;;;;;;;17.88;14.05;;;;;;;;;;5035012;28;20025;-70
2021/09/09 02:19:45;;;;;;;19.42;15.50;;;;;;;;;;5031532;28;20469;-70
2021/09/09 02:22:11;;;;;;;19.05;15.52;;;;;;;;;;5031454;28;20250;-70
2021/09/09 02:24:37;;;;;;;19.15;15.25;;;;;;;;;;5031566;28;20040;-70
2021/09/09 02:27:03;;;;;;;20.65;15.93;;;;;;;;;;5033900;28;20044;-70
2021/09/09 02:29:29;;;;;;;20.92;15.82;;;;;;;;;;5034948;28;20025;-70
2021/09/09 02:31:55;;;;;;;21.23;14.70;;;;;;;;;;5035341;28;20443;-70
2021/09/09 02:34:21;;;;;;;21.17;14.20;;;;;;;;;;5035094;28;20033;-70
2021/09/09 02:36:47;;;;;;;21.83;15.18;;;;;;;;;;5035032;28;20040;-70
2021/09/09 02:39:13;;;;;;;21.00;15.38;;;;;;;;;;5034336;28;20034;-71
2021/09/09 02:41:39;;;;;;;19.35;15.35;;;;;;;;;;5035107;28;20029;-70
2021/09/09 02:44:05;;;;;;;20.50;15.32;;;;;;;;;;5035214;28;20029;-70
2021/09/09 02:46:31;;;;;;;19.58;15.35;;;;;;;;;;5034492;28;20060;-70
2021/09/09 02:48:57;;;;;;;21.58;15.25;;;;;;;;;;5034877;28;20075;-70
2021/09/09 02:51:23;;;;;;;22.42;15.43;;;;;;;;;;5034253;28;20030;-70
2021/09/09 02:53:49;;;;;;;21.38;15.10;;;;;;;;;;5036049;28;20065;-70
2021/09/09 02:56:15;;;;;;;17.98;14.10;;;;;;;;;;5036301;28;20047;-70
2021/09/09 02:58:41;;;;;;;19.27;15.05;;;;;;;;;;5036330;28;20032;-70
2021/09/09 03:01:07;;;;;;;19.85;14.65;;;;;;;;;;5034289;28;20029;-70
2021/09/09 03:03:32;;;;;;;18.75;14.32;;;;;;;;;;5032654;28;20117;-70
2021/09/09 03:05:58;;;;;;;21.35;16.02;;;;;;;;;;5034804;28;20037;-70
2021/09/09 03:08:24;;;;;;;20.75;16.10;;;;;;;;;;5036031;28;20657;-69
2021/09/09 03:10:50;;;;;;;21.48;16.35;;;;;;;;;;5034361;28;20033;-69
2021/09/09 03:13:16;;;;;;;20.83;16.52;;;;;;;;;;5034440;28;20066;-70
2021/09/09 03:15:42;;;;;;;20.48;16.08;;;;;;;;;;5034100;28;20466;-70
2021/09/09 03:18:08;;;;;;;21.83;16.98;;;;;;;;;;5035642;28;20111;-69
2021/09/09 03:20:34;;;;;;;20.30;16.33;;;;;;;;;;5034159;28;20026;-70
2021/09/09 03:23:00;;;;;;;20.40;16.38;;;;;;;;;;5040076;28;20469;-69
2021/09/09 03:25:26;;;;;;;21.83;16.50;;;;;;;;;;5034504;28;20044;-70
2021/09/09 03:27:52;;;;;;;18.58;14.80;;;;;;;;;;5033921;28;20041;-61
2021/09/09 03:30:18;;;;;;;19.25;15.38;;;;;;;;;;5033303;28;20065;-61
2021/09/09 03:32:44;;;;;;;20.80;16.75;;;;;;;;;;5034166;28;20034;-61
2021/09/09 03:35:10;;;;;;;21.67;16.55;;;;;;;;;;5035314;28;20035;-61
2021/09/09 03:37:36;;;;;;;19.67;15.93;;;;;;;;;;5034039;28;20034;-61
2021/09/09 03:40:03;;;;;;;19.50;14.98;;;;;;;;;;5033394;28;20067;-62
2021/09/09 03:42:29;;;;;;;19.02;15.18;;;;;;;;;;5032158;28;20067;-61
2021/09/09 03:44:55;;;;;;;19.40;14.60;;;;;;;;;;5033533;28;20026;-61
2021/09/09 03:47:21;;;;;;;18.25;14.90;;;;;;;;;;5033260;28;20101;-61
2021/09/09 03:49:47;;;;;;;16.95;13.73;;;;;;;;;;5032434;28;20025;-62
2021/09/09 03:52:13;;;;;;;19.55;15.07;;;;;;;;;;5033400;28;20033;-60
2021/09/09 03:54:39;;;;;;;19.70;15.43;;;;;;;;;;5033614;28;20029;-61
2021/09/09 03:57:05;;;;;;;20.55;16.48;;;;;;;;;;5032546;28;20465;-61
2021/09/09 03:59:31;;;;;;;21.23;15.45;;;;;;;;;;5033130;28;20032;-60
2021/09/09 04:01:59;;;;;;;20.70;15.55;;;;;;;;;;5033390;28;20021;-60
2021/09/09 04:04:25;;;;;;;19.55;15.20;;;;;;;;;;5033798;28;20464;-60
2021/09/09 04:06:51;;;;;;;19.77;15.15;;;;;;;;;;5033490;28;20044;-60
2021/09/09 04:09:17;;;;;;;19.83;15.10;;;;;;;;;;5032715;28;20025;-60
2021/09/09 04:11:43;;;;;;;20.00;14.65;;;;;;;;;;5032526;28;20030;-60
2021/09/09 04:14:11;;;;;;;19.08;15.25;;;;;;;;;;5034705;28;20033;-60
2021/09/09 04:16:37;;;;;;;;;;;;;;;;;;5033318;28;20025;-60
2021/09/09 04:19:03;;;;;;;21.30;15.50;;;;;;;;;;5034502;28;20275;-60
2021/09/09 04:21:29;;;;;;;18.98;14.63;;;;;;;;;;5032453;28;20025;-60
2021/09/09 04:23:55;;;;;;;19.73;14.88;;;;;;;;;;5041009;28;20057;-60
2021/09/09 04:26:21;;;;;;;18.33;14.88;;;;;;;;;;5028759;28;20029;-60
2021/09/09 04:28:47;;;;;;;18.73;14.32;;;;;;;;;;5032914;28;20376;-60
2021/09/09 04:31:13;;;;;;;19.52;15.18;;;;;;;;;;5032620;28;20026;-60
2021/09/09 04:33:39;;;;;;;18.52;14.57;;;;;;;;;;5032606;28;20029;-60
2021/09/09 04:36:05;;;;;;;22.50;14.80;;;;;;;;;;5032230;28;20025;-61
2021/09/09 04:38:31;;;;;;;17.92;15.52;;;;;;;;;;5033765;28;20026;-60
2021/09/09 04:40:57;;;;;;;18.63;15.07;;;;;;;;;;5034149;28;20048;-60
2021/09/09 04:43:23;;;;;;;17.10;14.52;;;;;;;;;;5032926;28;20045;-61
2021/09/09 04:45:49;;;;;;;20.15;16.20;;;;;;;;;;5031634;28;20036;-61
2021/09/09 04:48:15;;;;;;;20.10;15.18;;;;;;;;;;5031998;28;20026;-60
2021/09/09 04:50:41;;;;;;;20.77;16.10;;;;;;;;;;5033965;28;20030;-60
2021/09/09 04:53:07;;;;;;;19.05;15.55;;;;;;;;;;5034123;28;20028;-60
2021/09/09 04:55:33;;;;;;;24.98;16.83;;;;;;;;;;5033770;28;20366;-61
2021/09/09 04:57:59;;;;;;;17.80;15.18;;;;;;;;;;5033257;28;20126;-60
2021/09/09 05:00:25;;;;;;;19.67;14.82;;;;;;;;;;5031984;28;20032;-60
2021/09/09 05:02:51;;;;;;;18.33;14.55;;;;;;;;;;5031545;28;20550;-60
2021/09/09 05:05:17;;;;;;;18.17;15.18;;;;;;;;;;5032431;28;20076;-60
2021/09/09 05:07:43;;;;;;;19.40;15.85;;;;;;;;;;5032099;28;20389;-60
2021/09/09 05:10:10;;;;;;;21.38;16.25;;;;;;;;;;5033698;28;20057;-61
2021/09/09 05:12:36;;;;;;;20.90;16.13;;;;;;;;;;5031865;28;20032;-60
2021/09/09 05:15:02;;;;;;;19.23;16.52;;;;;;;;;;5033361;28;20056;-62
2021/09/09 05:17:28;;;;;;;18.20;15.40;;;;;;;;;;5032356;28;20029;-60
2021/09/09 05:19:54;;;;;;;20.42;14.95;;;;;;;;;;5031832;28;20453;-60
2021/09/09 05:22:20;;;;;;;20.77;15.45;;;;;;;;;;5033662;28;20088;-59
2021/09/09 05:24:46;;;;;;;17.58;15.00;;;;;;;;;;5032200;28;20078;-60
2021/09/09 05:27:12;;;;;;;20.23;15.75;;;;;;;;;;5030637;28;20037;-60
2021/09/09 05:29:38;;;;;;;19.30;15.18;;;;;;;;;;5033350;28;20434;-60
2021/09/09 05:32:05;;;;;;;19.27;14.65;;;;;;;;;;5033638;28;20109;-59
2021/09/09 05:34:31;;;;;;;21.08;15.15;;;;;;;;;;5032259;28;20030;-60
2021/09/09 05:36:57;;;;;;;19.88;14.82;;;;;;;;;;5033651;28;20018;-59
2021/09/09 05:39:23;;;;;;;20.35;15.82;;;;;;;;;;5030989;28;20029;-60
2021/09/09 05:41:49;;;;;;;17.65;14.60;;;;;;;;;;5033667;28;20103;-60
2021/09/09 05:44:15;;;;;;;18.80;15.05;;;;;;;;;;5033232;28;20025;-59
2021/09/09 05:46:41;;;;;;;19.05;15.43;;;;;;;;;;5033523;28;20038;-60
2021/09/09 05:49:07;;;;;;;20.10;15.07;;;;;;;;;;5031677;28;20477;-60
2021/09/09 05:51:33;;;;;;;19.50;14.63;;;;;;;;;;5030948;28;20087;-61
2021/09/09 05:53:59;;;;;;;21.10;15.35;;;;;;;;;;5032200;28;20030;-62
2021/09/09 05:56:25;;;;;;;20.80;15.30;;;;;;;;;;5031487;28;20029;-60
2021/09/09 05:58:52;;;;;;;18.17;14.75;;;;;;;;;;5031497;28;20472;-60
2021/09/09 06:01:18;;;;;;;19.02;15.85;;;;;;;;;;5034157;28;20057;-60
2021/09/09 06:03:45;;;;;;;20.48;15.63;;;;;;;;;;5035302;28;20026;-60
2021/09/09 06:06:15;;;;;;;17.67;14.60;;;;;;;;;;5033372;28;20428;-60
2021/09/09 06:08:42;;;;;;;18.33;15.02;;;;;;;;;;5035417;28;20022;-60
2021/09/09 06:11:08;;;;;;;20.90;16.05;;;;;;;;;;5036563;28;20499;-60
2021/09/09 06:13:34;;;;;;;19.60;15.30;;;;;;;;;;5042260;28;20038;-60
2021/09/09 06:16:00;;;;;;;18.13;14.63;;;;;;;;;;5035170;28;20048;-60
2021/09/09 06:18:26;;;;;;;18.60;15.57;;;;;;;;;;5034696;28;20526;-60
2021/09/09 06:20:52;;;;;;;23.70;15.50;;;;;;;;;;5035842;28;20401;-60
2021/09/09 06:23:18;;;;;;;20.20;16.00;;;;;;;;;;5034891;28;20029;-60
2021/09/09 06:25:44;;;;;;;20.17;15.93;;;;;;;;;;5035199;28;20041;-59
2021/09/09 06:28:10;;;;;;;21.08;15.45;;;;;;;;;;5034666;28;20050;-59
2021/09/09 06:30:37;;;;;;;20.33;16.08;;;;;;;;;;5033705;28;20048;-59
2021/09/09 06:33:03;;;;;;;19.55;15.02;;;;;;;;;;5034865;28;20447;-59
2021/09/09 06:35:29;;;;;;;21.02;15.05;;;;;;;;;;5034698;28;20048;-59
2021/09/09 06:37:56;;;;;;;19.05;15.30;;;;;;;;;;5033879;28;20025;-61
2021/09/09 06:40:22;;;;;;;19.17;16.27;;;;;;;;;;5034693;28;20489;-59
2021/09/09 06:42:48;;;;;;;19.85;14.75;;;;;;;;;;5034401;28;20109;-59
2021/09/09 06:45:14;;;;;;;17.52;14.38;;;;;;;;;;5033969;28;20159;-59
2021/09/09 06:47:40;;;;;;;21.00;14.45;;;;;;;;;;5035651;28;20388;-59
2021/09/09 06:50:07;;;;;;;21.05;15.15;;;;;;;;;;5036429;28;20036;-59
2021/09/09 06:52:33;;;;;;;19.77;14.80;;;;;;;;;;5034535;28;20028;-59
2021/09/09 06:54:59;;;;;;;19.23;15.77;;;;;;;;;;5034421;28;20088;-59
2021/09/09 06:57:25;;;;;;;24.25;17.23;;;;;;;;;;5033282;28;20402;-59
2021/09/09 06:59:51;;;;;;;19.70;16.00;;;;;;;;;;5033788;28;20377;-59
2021/09/09 07:02:17;;;;;;;27.55;17.23;;;;;;;;;;5034057;28;20029;-59
2021/09/09 07:04:43;;;;;;;29.58;16.65;;;;;;;;;;5034148;28;20075;-59
2021/09/09 07:07:09;;;;;;;21.42;16.05;;;;;;;;;;5034024;28;20083;-59
2021/09/09 07:09:35;;;;;;;22.48;15.98;;;;;;;;;;5033005;28;20026;-58
2021/09/09 07:12:01;;;;;;;26.55;16.15;;;;;;;;;;5033773;28;20017;-59
2021/09/09 07:14:27;;;;;;;19.73;15.02;;;;;;;;;;5033584;28;20029;-59
2021/09/09 07:16:55;;;;;;;19.40;14.82;;;;;;;;;;5032661;28;20040;-59
2021/09/09 07:19:21;;;;;;;19.45;15.68;;;;;;;;;;5033974;28;20097;-59
2021/09/09 07:21:50;;;;;;;20.52;16.05;;;;;;;;;;5033739;28;20037;-59
2021/09/09 07:24:17;;;;;;;19.77;16.42;;;;;;;;;;5033031;28;20100;-59
2021/09/09 07:26:43;;;;;;;22.20;16.25;;;;;;;;;;5033338;28;20050;-59
2021/09/09 07:29:09;;;;;;;21.95;15.77;;;;;;;;;;5035343;28;20037;-59
2021/09/09 07:31:35;;;;;;;20.90;15.73;;;;;;;;;;5033938;28;20440;-59
2021/09/09 07:34:01;;;;;;;19.38;15.80;;;;;;;;;;5034180;28;20021;-59
2021/09/09 07:36:27;;;;;;;21.10;16.25;;;;;;;;;;5032519;28;20036;-59
2021/09/09 07:38:53;;;;;;;18.73;13.98;;;;;;;;;;5035389;28;20028;-59
2021/09/09 07:41:19;;;;;;;17.60;14.70;;;;;;;;;;5033048;28;20063;-59
2021/09/09 07:43:45;;;;;;;19.17;13.80;;;;;;;;;;5033756;28;20022;-59
2021/09/09 07:46:11;;;;;;;18.33;14.77;;;;;;;;;;5033422;28;20049;-59
2021/09/09 07:48:37;;;;;;;20.10;15.05;;;;;;;;;;5032733;28;20030;-59
2021/09/09 07:51:03;;;;;;;20.10;15.48;;;;;;;;;;5033122;28;20028;-59
2021/09/09 07:53:29;;;;;;;19.85;14.82;;;;;;;;;;5035069;28;20018;-59
2021/09/09 07:55:55;;;;;;;20.63;14.68;;;;;;;;;;5034304;28;20066;-59
2021/09/09 07:58:21;;;;;;;22.42;15.15;;;;;;;;;;5034692;28;20067;-59
2021/09/09 08:00:47;;;;;;;18.48;14.90;;;;;;;;;;5033508;28;20037;-59
2021/09/09 08:03:13;;;;;;;19.27;14.38;;;;;;;;;;5033467;28;20443;-59
2021/09/09 08:05:39;;;;;;;18.23;15.02;;;;;;;;;;5032568;28;20132;-60
2021/09/09 08:08:05;;;;;;;19.70;13.98;;;;;;;;;;5033011;28;20053;-59
2021/09/09 08:10:31;;;;;;;18.25;14.63;;;;;;;;;;5032915;28;20485;-59
2021/09/09 08:12:57;;;;;;;17.88;14.90;;;;;;;;;;5032865;28;20494;-59
2021/09/09 08:15:23;;;;;;;15.88;13.93;;;;;;;;;;5030930;28;20097;-59
2021/09/09 08:17:49;;;;;;;18.33;14.43;;;;;;;;;;5032788;28;20393;-59
2021/09/09 08:20:16;;;;;;;20.27;14.75;;;;;;;;;;5032512;28;20025;-59
2021/09/09 08:22:42;;;;;;;21.73;14.88;;;;;;;;;;5032860;28;20029;-59
2021/09/09 08:25:09;;;;;;;20.02;14.93;;;;;;;;;;5032197;28;20120;-59
2021/09/09 08:27:35;;;;;;;18.15;14.40;;;;;;;;;;5031307;28;20050;-59
2021/09/09 08:30:01;;;;;;;18.42;12.82;;;;;;;;;;5032916;28;20028;-59
2021/09/09 08:32:27;;;;;;;17.05;13.60;;;;;;;;;;5032820;28;20048;-59
2021/09/09 08:34:53;;;;;;;16.92;13.10;;;;;;;;;;5029558;28;20413;-60
2021/09/09 08:37:19;;;;;;;19.15;13.50;;;;;;;;;;5032783;28;20013;-59
2021/09/09 08:39:45;;;;;;;20.27;13.88;;;;;;;;;;5032033;28;20037;-59
2021/09/09 08:42:15;;;;;;;21.02;13.02;;;;;;;;;;5031734;28;20539;-59
2021/09/09 08:44:41;;;;;;;16.90;13.43;;;;;;;;;;5032109;28;20060;-59
2021/09/09 08:47:10;;;;;;;16.58;12.70;;;;;;;;;;5032430;28;20034;-59
2021/09/09 08:49:37;;;;;;;23.70;14.15;;;;;;;;;;5022916;28;20550;-59
2021/09/09 08:52:04;;;;;;;17.60;13.65;;;;;;;;;;5032208;28;20037;-59
2021/09/09 08:54:30;;;;;;;17.38;13.90;;;;;;;;;;5031206;28;20021;-59
2021/09/09 08:56:57;;;;;;;20.17;13.80;;;;;;;;;;5033658;28;20025;-59
2021/09/09 08:59:22;;;;;;;19.10;14.15;;;;;;;;;;5034074;28;20048;-59
2021/09/09 09:02:10;;;;;;;17.58;13.30;;;;;;;;;;5032472;28;20074;-59
2021/09/09 09:04:36;;;;;;;;;;;;;;;;;;5034122;28;20030;-59
2021/09/09 09:07:03;;;;;;;16.95;13.18;;;;;;;;;;5033754;28;19932;-59
2021/09/09 09:09:33;;;;;;;20.40;13.10;;;;;;;;;;5030164;28;20021;-59
2021/09/09 09:11:59;;;;;;;19.13;13.43;;;;;;;;;;5032522;28;20486;-60
2021/09/09 09:14:25;;;;;;;17.95;13.35;;;;;;;;;;5026387;28;20030;-60
2021/09/09 09:16:53;;;;;;;18.17;12.57;;;;;;;;;;5029277;28;20045;-60
2021/09/09 09:19:19;;;;;;;;;;;;;;;;;;5032363;28;20381;-60
2021/09/09 09:21:47;;;;;;;15.50;11.95;;;;;;;;;;5031126;28;19913;-60
2021/09/09 09:24:18;;;;;;;17.70;12.80;;;;;;;;;;5029950;28;20424;-60
2021/09/09 09:27:03;;;;;;;16.30;12.40;;;;;;;;;;5033945;28;20124;-59
2021/09/09 09:29:29;;;;;;;15.32;12.00;;;;;;;;;;5031973;28;20029;-60
2021/09/09 09:32:06;;;;;;;19.63;12.35;;;;;;;;;;5032006;28;20108;-59
2021/09/09 09:34:32;;;;;;;17.75;11.77;;;;;;;;;;5031907;28;20108;-59
2021/09/09 09:36:58;;;;;;;16.75;12.70;;;;;;;;;;5043664;28;20104;-59
2021/09/09 09:39:25;;;;;;;17.92;12.48;;;;;;;;;;5034039;28;20041;-59
2021/09/09 09:41:54;;;;;;;17.35;11.55;;;;;;;;;;5035777;28;20033;-59
2021/09/09 09:44:29;;;;;;;14.88;11.98;;;;;;;;;;5039200;28;20041;-59
2021/09/09 09:47:06;;;;;;;20.38;12.27;;;;;;;;;;5034966;28;20111;-59
2021/09/09 09:49:32;;;;;;;17.55;12.70;;;;;;;;;;5035038;28;20025;-59
2021/09/09 09:52:00;;;;;;;17.10;12.23;;;;;;;;;;5037149;28;20480;-59
2021/09/09 09:54:26;;;;;;;15.23;11.95;;;;;;;;;;5034739;28;20422;-59
2021/09/09 09:56:53;;;;;;;15.93;12.10;;;;;;;;;;5037059;28;20083;-59
2021/09/09 09:59:19;;;;;;;16.85;11.85;;;;;;;;;;5036575;28;20376;-59
2021/09/09 10:01:45;;;;;;;17.40;11.68;;;;;;;;;;5042084;28;20374;-59
2021/09/09 10:04:13;;;;;;;13.73;11.35;;;;;;;;;;5036293;28;20017;-58
2021/09/09 10:06:40;;;;;;;14.93;11.32;;;;;;;;;;5043938;28;20036;-59
2021/09/09 10:09:06;;;;;;;14.40;11.70;;;;;;;;;;5034871;28;20524;-61
2021/09/09 10:11:32;;;;;;;16.40;11.48;;;;;;;;;;5034688;28;20472;-61
2021/09/09 10:13:59;;;;;;;13.82;11.40;;;;;;;;;;5036528;28;20029;-60
2021/09/09 10:16:27;;;;;;;18.02;11.85;;;;;;;;;;5037463;28;20527;-59
2021/09/09 10:18:54;;;;;;;15.43;11.25;;;;;;;;;;5035288;28;20025;-59
2021/09/09 10:21:38;;;;;;;13.57;10.90;;;;;;;;;;5034091;28;20033;-60
2021/09/09 10:24:27;;;;;;;17.88;11.35;;;;;;;;;;5035762;28;20029;-60
2021/09/09 10:27:13;;;;;;;15.15;10.80;;;;;;;;;;5034513;28;20129;-59
2021/09/09 10:29:45;;;;;;;12.75;10.45;;;;;;;;;;5032646;28;20030;-59
2021/09/09 10:32:29;;;;;;;13.57;9.65;;;;;;;;;;5032007;28;20029;-59
2021/09/09 10:35:14;;;;;;;15.65;10.68;;;;;;;;;;5030560;28;20033;-61
2021/09/09 10:37:40;;;;;;;20.45;11.35;;;;;;;;;;5029659;28;20029;-59
2021/09/09 10:40:06;;;;;;;15.30;11.05;;;;;;;;;;5032113;28;20036;-59
2021/09/09 10:42:39;;;;;;;13.63;10.70;;;;;;;;;;5032561;28;20021;-59
2021/09/09 10:45:06;;;;;;;14.73;10.98;;;;;;;;;;5041262;28;20496;-59
2021/09/09 10:47:49;;;;;;;16.15;11.05;;;;;;;;;;5036733;28;20481;-61
2021/09/09 10:50:15;;;;;;;17.00;10.70;;;;;;;;;;5034652;28;20091;-59
2021/09/09 10:52:59;;;;;;;15.60;10.68;;;;;;;;;;5033983;28;20481;-59
2021/09/09 10:55:26;;;;;;;14.35;10.80;;;;;;;;;;5036470;28;20033;-60
2021/09/09 10:58:10;;;;;;;15.33;10.50;;;;;;;;;;5018251;28;20025;-59
2021/09/09 11:00:51;;;;;;;14.35;10.77;;;;;;;;;;5030386;28;20494;-59
2021/09/09 11:03:41;;;;;;;17.58;12.10;;;;;;;;;;5030257;28;20033;-59
2021/09/09 11:06:14;;;;;;;14.88;10.82;;;;;;;;;;5033002;28;20091;-59
2021/09/09 11:08:41;;;;;;;14.25;10.55;;;;;;;;;;5034810;28;20123;-60
2021/09/09 11:11:08;;;;;;;15.10;11.27;;;;;;;;;;5032052;28;20036;-61
2021/09/09 11:13:36;;;;;;;18.00;11.13;;;;;;;;;;5026880;28;20504;-59
2021/09/09 11:16:18;;;;;;;18.23;10.93;;;;;;;;;;5044731;28;20033;-59
2021/09/09 11:18:44;;;;;;;14.43;11.10;;;;;;;;;;5032118;28;20053;-59
2021/09/09 11:21:10;;;;;;;16.13;11.30;;;;;;;;;;5032109;28;20029;-60
2021/09/09 11:23:36;;;;;;;15.00;10.52;;;;;;;;;;5020364;28;20038;-60
2021/09/09 11:26:16;;;;;;;13.82;11.07;;;;;;;;;;5035173;28;20546;-60
2021/09/09 11:28:42;;;;;;;17.70;10.90;;;;;;;;;;5033567;28;20410;-60
2021/09/09 11:31:11;;;;;;;15.48;11.75;;;;;;;;;;5034575;28;20036;-65
2021/09/09 11:33:52;;;;;;;13.13;10.63;;;;;;;;;;5030606;28;20017;-65
2021/09/09 11:36:19;;;;;;;15.43;11.32;;;;;;;;;;5025954;28;20040;-65
2021/09/09 11:38:45;;;;;;;19.92;11.48;;;;;;;;;;5028864;28;20021;-65
2021/09/09 11:41:16;;;;;;;14.45;11.25;;;;;;;;;;5033832;28;20025;-65
2021/09/09 11:43:47;;;;;;;16.33;11.02;;;;;;;;;;5033956;28;20053;-65
2021/09/09 11:46:13;;;;;;;13.32;10.68;;;;;;;;;;5043212;28;20040;-65
2021/09/09 11:48:39;;;;;;;15.02;10.57;;;;;;;;;;5015792;28;20032;-65
2021/09/09 11:51:05;;;;;;;14.90;10.77;;;;;;;;;;5034189;28;20028;-65
2021/09/09 11:53:31;;;;;;;16.00;11.93;;;;;;;;;;5032618;28;20037;-65
2021/09/09 11:55:57;;;;;;;14.63;11.20;;;;;;;;;;5035913;28;20021;-65
2021/09/09 11:58:37;;;;;;;15.30;11.25;;;;;;;;;;5044895;28;20456;-65
2021/09/09 12:01:05;;;;;;;19.05;11.10;;;;;;;;;;5007307;28;20029;-65
2021/09/09 12:03:31;;;;;;;17.83;11.80;;;;;;;;;;5031344;28;20022;-65
2021/09/09 12:05:57;;;;;;;15.15;11.13;;;;;;;;;;5035784;28;20073;-65
2021/09/09 12:08:24;;;;;;;15.95;11.40;;;;;;;;;;5034397;28;20076;-65
2021/09/09 12:10:50;;;;;;;14.63;10.90;;;;;;;;;;5034532;28;20386;-65
2021/09/09 12:13:29;;;;;;;16.20;11.27;;;;;;;;;;5034989;28;20087;-65
2021/09/09 12:15:56;;;;;;;18.67;11.23;;;;;;;;;;5018546;28;20029;-64
2021/09/09 12:18:30;;;;;;;14.82;10.93;;;;;;;;;;5038985;28;20017;-65
2021/09/09 12:21:07;;;;;;;17.90;11.40;;;;;;;;;;5032806;28;20029;-65
2021/09/09 12:23:33;;;;;;;14.85;10.85;;;;;;;;;;5034748;28;20025;-65
2021/09/09 12:26:14;;;;;;;15.13;11.30;;;;;;;;;;5034106;28;20440;-65
2021/09/09 12:28:40;;;;;;;15.70;11.23;;;;;;;;;;5034480;28;20524;-65
2021/09/09 12:31:06;;;;;;;15.95;9.98;;;;;;;;;;5033204;28;20033;-65
2021/09/09 12:33:37;;;;;;;15.88;11.13;;;;;;;;;;5032450;28;20021;-65
2021/09/09 12:36:11;;;;;;;15.88;10.43;;;;;;;;;;5033529;28;20025;-65
2021/09/09 12:38:41;;;;;;;14.60;10.45;;;;;;;;;;5033984;28;20053;-65
2021/09/09 12:41:08;;;;;;;14.88;10.52;;;;;;;;;;5034612;28;20354;-65
2021/09/09 12:43:36;;;;;;;13.88;9.95;;;;;;;;;;5034440;28;20036;-65
2021/09/09 12:46:02;;;;;;;17.52;10.75;;;;;;;;;;5034188;28;20030;-65
2021/09/09 12:48:30;;;;;;;16.58;10.27;;;;;;;;;;5031003;28;20385;-65
2021/09/09 12:51:01;;;;;;;16.85;10.27;;;;;;;;;;5048036;28;20086;-64
2021/09/09 12:53:27;;;;;;;17.40;10.50;;;;;;;;;;5034354;28;20151;-65
2021/09/09 12:56:01;;;;;;;16.83;11.05;;;;;;;;;;5034146;28;20033;-65
2021/09/09 12:58:27;;;;;;;13.52;9.82;;;;;;;;;;5033825;28;20025;-65
2021/09/09 13:00:55;;;;;;;13.18;10.15;;;;;;;;;;5033322;28;20370;-65
2021/09/09 13:03:21;;;;;;;16.27;10.15;;;;;;;;;;5032337;28;20160;-65
2021/09/09 13:05:47;;;;;;;12.80;9.75;;;;;;;;;;5033741;28;20117;-65
2021/09/09 13:08:13;;;;;;;14.75;9.90;;;;;;;;;;5033642;28;20045;-65
2021/09/09 13:10:39;;;;;;;15.23;9.68;;;;;;;;;;5032433;28;20065;-65
2021/09/09 13:13:05;;;;;;;20.73;9.93;;;;;;;;;;5033447;28;20389;-65
2021/09/09 13:15:31;;;;;;;15.27;9.77;;;;;;;;;;5031515;28;20029;-65
2021/09/09 13:17:57;;;;;;;16.85;10.13;;;;;;;;;;5034258;28;20029;-65
2021/09/09 13:20:23;;;;;;;14.30;9.80;;;;;;;;;;5033755;28;20562;-65
2021/09/09 13:22:49;;;;;;;16.73;9.70;;;;;;;;;;5033550;28;20029;-65
2021/09/09 13:25:15;;;;;;;16.70;9.88;;;;;;;;;;5033452;28;20429;-65
2021/09/09 13:27:41;;;;;;;12.75;9.73;;;;;;;;;;5031538;28;20053;-65
2021/09/09 13:30:07;;;;;;;15.45;9.93;;;;;;;;;;5033447;28;20107;-66
2021/09/09 13:32:33;;;;;;;12.43;9.52;;;;;;;;;;5033661;28;20381;-65
2021/09/09 13:34:59;;;;;;;12.85;9.95;;;;;;;;;;5033644;28;20108;-65
2021/09/09 13:37:25;;;;;;;15.75;10.68;;;;;;;;;;5031582;28;20033;-65
2021/09/09 13:39:51;;;;;;;15.02;10.02;;;;;;;;;;5032963;28;20014;-65
2021/09/09 13:42:17;;;;;;;15.27;9.45;;;;;;;;;;5032206;28;20120;-65
2021/09/09 13:44:43;;;;;;;16.50;10.32;;;;;;;;;;5033244;28;20021;-65
2021/09/09 13:47:11;;;;;;;13.68;9.63;;;;;;;;;;5033534;28;20064;-65
2021/09/09 13:49:37;;;;;;;15.20;9.95;;;;;;;;;;5031705;28;20018;-65
2021/09/09 13:52:03;;;;;;;17.75;9.75;;;;;;;;;;5033767;28;20392;-65
2021/09/09 13:54:29;;;;;;;15.88;10.27;;;;;;;;;;5031135;28;20022;-65
2021/09/09 13:56:55;;;;;;;14.63;9.98;;;;;;;;;;5030418;28;20063;-65
2021/09/09 13:59:21;;;;;;;15.23;10.43;;;;;;;;;;5032667;28;20053;-65
2021/09/09 14:01:47;;;;;;;16.88;10.27;;;;;;;;;;5033703;28;20084;-65
2021/09/09 14:04:13;;;;;;;15.95;10.50;;;;;;;;;;5034197;28;20017;-65
2021/09/09 14:06:39;;;;;;;16.73;10.40;;;;;;;;;;5033425;28;20092;-65
2021/09/09 14:09:05;;;;;;;16.73;10.60;;;;;;;;;;5032219;28;20424;-65
2021/09/09 14:11:33;;;;;;;14.65;10.20;;;;;;;;;;5034216;28;20079;-65
2021/09/09 14:13:59;;;;;;;13.95;10.38;;;;;;;;;;5032567;28;20022;-65
2021/09/09 14:16:26;;;;;;;13.45;10.00;;;;;;;;;;5031941;28;20029;-65
2021/09/09 14:18:52;;;;;;;16.13;10.68;;;;;;;;;;5032712;28;20108;-64